PWSweather.com
Personal Weather Stations
Station Observations
PICKERING
North Yorkshire, PickeringGB

North YorkshirePickeringGB

Lat: 54.2494, Lon: -0.7725

Elevation: 192

Station Type: Oregon Scientific WMR100

http://www.yorkshirewalker.co.uk/weather/

Latest ConditionsUpdated 5:00:01 PM GMT Monday, Jan 21, 2019
Currently Today's Max Today's Min Today's Average
Temperature 37.8°F3.2°C 39.2°F4.0°C 25.9°F-3.4°C 32.3°F0.2°C
Dew Point 33.8°F1.0°C 35.6°F2.0°C 21.2°F-6.0°C 27.7°F-2.4°C
Winds 3.4 mph S5.5 kmh S 5.0 mph -8.0 kmh - - 1.0 mph 1.6 kmh
Wind Gusts 8.1 mph13.0 kmh 8.5 mph13.7 kmh - -
Humidity 83% 86% 83% 84%
Pressure 29.68 in1005.1 mb 30.04 in1017.3 mb 29.62 in1003.0 mb -
Hour Temp Dew Point Humidity Winds Wind Gusts Pressure Precip Precip Rate Daily Precip Total
05:00 PM 37.8°F3.2°C 33.8°F1.0°C 83% 3.4 mph S5.5 kmh S 8.1 mph13.0 kmh 29.68 in1005.1 mb 0.00 in0.0 mm 0.00 in0.0 mm 0.00 in0.0 mm
04:55 PM 37.6°F3.1°C 33.8°F1.0°C 83% 2.6 mph S4.2 kmh S 4.3 mph6.9 kmh 29.71 in1006.1 mb 0.00 in0.0 mm 0.00 in0.0 mm 0.00 in0.0 mm
04:50 PM 37.8°F3.2°C 33.8°F1.0°C 83% 2.5 mph SSE4.0 kmh SSE 4.7 mph7.6 kmh 29.71 in1006.1 mb 0.00 in0.0 mm 0.00 in0.0 mm 0.00 in0.0 mm
04:45 PM 38.1°F3.4°C 33.8°F1.0°C 83% 2.8 mph SSE4.5 kmh SSE 4.7 mph7.6 kmh 29.71 in1006.1 mb 0.00 in0.0 mm 0.00 in0.0 mm 0.00 in0.0 mm
04:40 PM 38.1°F3.4°C 33.8°F1.0°C 83% 3.7 mph S6.0 kmh S 5.6 mph9.0 kmh 29.71 in1006.1 mb 0.00 in0.0 mm 0.00 in0.0 mm 0.00 in0.0 mm
04:35 PM 38.1°F3.4°C 33.8°F1.0°C 84% 4.0 mph S6.4 kmh S 8.5 mph13.7 kmh 29.71 in1006.1 mb 0.00 in0.0 mm 0.00 in0.0 mm 0.00 in0.0 mm
04:30 PM 37.9°F3.3°C 33.8°F1.0°C 84% 4.2 mph S6.8 kmh S 8.5 mph13.7 kmh 29.71 in1006.1 mb 0.00 in0.0 mm 0.00 in0.0 mm 0.00 in0.0 mm
04:25 PM 37.9°F3.3°C 33.8°F1.0°C 84% 3.7 mph S6.0 kmh S 5.8 mph9.3 kmh 29.71 in1006.1 mb 0.00 in0.0 mm 0.00 in0.0 mm 0.00 in0.0 mm
04:20 PM 38.1°F3.4°C 33.8°F1.0°C 84% 3.4 mph S5.5 kmh S 5.8 mph9.3 kmh 29.71 in1006.1 mb 0.00 in0.0 mm 0.00 in0.0 mm 0.00 in0.0 mm
04:15 PM 38.3°F3.5°C 33.8°F1.0°C 84% 4.4 mph S7.1 kmh S 7.6 mph12.2 kmh 29.71 in1006.1 mb 0.00 in0.0 mm 0.00 in0.0 mm 0.00 in0.0 mm
04:10 PM 38.3°F3.5°C 33.8°F1.0°C 84% 5.0 mph S8.0 kmh S 7.6 mph12.2 kmh 29.71 in1006.1 mb 0.00 in0.0 mm 0.00 in0.0 mm 0.00 in0.0 mm
04:05 PM 38.3°F3.5°C 33.8°F1.0°C 84% 4.4 mph S7.1 kmh S 7.6 mph12.2 kmh 29.71 in1006.1 mb 0.00 in0.0 mm 0.00 in0.0 mm 0.00 in0.0 mm
04:00 PM 38.3°F3.5°C 33.8°F1.0°C 84% 3.0 mph S4.8 kmh S 4.3 mph6.9 kmh 29.71 in1006.1 mb 0.00 in0.0 mm 0.00 in0.0 mm 0.00 in0.0 mm
03:55 PM 38.3°F3.5°C 33.8°F1.0°C 84% 2.5 mph S4.0 kmh S 6.3 mph10.1 kmh 29.74 in1007.1 mb 0.00 in0.0 mm 0.00 in0.0 mm 0.00 in0.0 mm
03:50 PM 38.5°F3.6°C 33.8°F1.0°C 84% 2.9 mph S4.7 kmh S 6.3 mph10.1 kmh 29.74 in1007.1 mb 0.00 in0.0 mm 0.00 in0.0 mm 0.00 in0.0 mm
03:45 PM 38.5°F3.6°C 33.8°F1.0°C 84% 3.0 mph S4.8 kmh S 5.8 mph9.3 kmh 29.74 in1007.1 mb 0.00 in0.0 mm 0.00 in0.0 mm 0.00 in0.0 mm
03:40 PM 38.7°F3.7°C 33.8°F1.0°C 84% 3.2 mph S5.1 kmh S 6.0 mph9.7 kmh 29.74 in1007.1 mb 0.00 in0.0 mm 0.00 in0.0 mm 0.00 in0.0 mm
03:35 PM 38.7°F3.7°C 33.8°F1.0°C 84% 3.6 mph S5.8 kmh S 6.0 mph9.7 kmh 29.74 in1007.1 mb 0.00 in0.0 mm 0.00 in0.0 mm 0.00 in0.0 mm
03:30 PM 38.7°F3.7°C 33.8°F1.0°C 84% 3.3 mph S5.3 kmh S 5.6 mph9.0 kmh 29.74 in1007.1 mb 0.00 in0.0 mm 0.00 in0.0 mm 0.00 in0.0 mm
03:25 PM 38.8°F3.8°C 33.8°F1.0°C 83% 3.1 mph SSW5.0 kmh SSW 6.3 mph10.1 kmh 29.74 in1007.1 mb 0.00 in0.0 mm 0.00 in0.0 mm 0.00 in0.0 mm
03:20 PM 39.0°F3.9°C 33.8°F1.0°C 83% 3.2 mph S5.1 kmh S 6.3 mph10.1 kmh 29.74 in1007.1 mb 0.00 in0.0 mm 0.00 in0.0 mm 0.00 in0.0 mm
03:15 PM 39.2°F4.0°C 33.8°F1.0°C 83% 3.6 mph S5.8 kmh S 6.0 mph9.7 kmh 29.74 in1007.1 mb 0.00 in0.0 mm 0.00 in0.0 mm 0.00 in0.0 mm
03:10 PM 39.2°F4.0°C 35.6°F2.0°C 84% 3.5 mph S5.6 kmh S 6.3 mph10.1 kmh 29.77 in1008.1 mb 0.00 in0.0 mm 0.00 in0.0 mm 0.00 in0.0 mm
03:05 PM 39.2°F4.0°C 35.6°F2.0°C 84% 3.3 mph SSW5.3 kmh SSW 6.3 mph10.1 kmh 29.77 in1008.1 mb 0.00 in0.0 mm 0.00 in0.0 mm 0.00 in0.0 mm
03:00 PM 39.2°F4.0°C 35.6°F2.0°C 84% 3.8 mph S6.1 kmh S 6.3 mph10.1 kmh 29.77 in1008.1 mb 0.00 in0.0 mm 0.00 in0.0 mm 0.00 in0.0 mm
02:55 PM 39.2°F4.0°C 35.6°F2.0°C 84% 3.6 mph S5.8 kmh S 4.5 mph7.2 kmh 29.77 in1008.1 mb 0.00 in0.0 mm 0.00 in0.0 mm 0.00 in0.0 mm
02:50 PM 39.2°F4.0°C 35.6°F2.0°C 84% 2.9 mph S4.7 kmh S 4.5 mph7.2 kmh 29.77 in1008.1 mb 0.00 in0.0 mm 0.00 in0.0 mm 0.00 in0.0 mm
02:45 PM 39.2°F4.0°C 35.6°F2.0°C 84% 3.1 mph SSW5.0 kmh SSW 5.4 mph8.7 kmh 29.77 in1008.1 mb 0.00 in0.0 mm 0.00 in0.0 mm 0.00 in0.0 mm
02:40 PM 39.2°F4.0°C 35.6°F2.0°C 84% 4.3 mph S6.9 kmh S 6.3 mph10.1 kmh 29.77 in1008.1 mb 0.00 in0.0 mm 0.00 in0.0 mm 0.00 in0.0 mm
02:35 PM 39.2°F4.0°C 35.6°F2.0°C 84% 3.7 mph S6.0 kmh S 6.3 mph10.1 kmh 29.77 in1008.1 mb 0.00 in0.0 mm 0.00 in0.0 mm 0.00 in0.0 mm
02:30 PM 39.2°F4.0°C 35.6°F2.0°C 85% 3.2 mph SSW5.1 kmh SSW 5.4 mph8.7 kmh 29.77 in1008.1 mb 0.00 in0.0 mm 0.00 in0.0 mm 0.00 in0.0 mm
02:25 PM 39.2°F4.0°C 35.6°F2.0°C 85% 3.4 mph S5.5 kmh S 5.4 mph8.7 kmh 29.80 in1009.1 mb 0.00 in0.0 mm 0.00 in0.0 mm 0.00 in0.0 mm
02:20 PM 39.2°F4.0°C 35.6°F2.0°C 85% 3.5 mph S5.6 kmh S 5.6 mph9.0 kmh 29.80 in1009.1 mb 0.00 in0.0 mm 0.00 in0.0 mm 0.00 in0.0 mm
02:15 PM 39.2°F4.0°C 35.6°F2.0°C 85% 3.4 mph S5.5 kmh S 5.6 mph9.0 kmh 29.80 in1009.1 mb 0.00 in0.0 mm 0.00 in0.0 mm 0.00 in0.0 mm
02:10 PM 39.0°F3.9°C 35.6°F2.0°C 85% 3.1 mph S5.0 kmh S 4.3 mph6.9 kmh 29.62 in1003.0 mb 0.00 in0.0 mm 0.00 in0.0 mm 0.00 in0.0 mm
02:05 PM 39.0°F3.9°C 35.6°F2.0°C 85% 3.3 mph S5.3 kmh S 5.4 mph8.7 kmh 29.62 in1003.0 mb 0.00 in0.0 mm 0.00 in0.0 mm 0.00 in0.0 mm
02:00 PM 39.0°F3.9°C 35.6°F2.0°C 85% 3.1 mph S5.0 kmh S 5.4 mph8.7 kmh 29.62 in1003.0 mb 0.00 in0.0 mm 0.00 in0.0 mm 0.00 in0.0 mm
01:55 PM 38.8°F3.8°C 35.6°F2.0°C 85% 2.9 mph S4.7 kmh S 4.7 mph7.6 kmh 29.80 in1009.1 mb 0.00 in0.0 mm 0.00 in0.0 mm 0.00 in0.0 mm
01:50 PM 38.8°F3.8°C 35.6°F2.0°C 85% 2.5 mph S4.0 kmh S 4.7 mph7.6 kmh 29.80 in1009.1 mb 0.00 in0.0 mm 0.00 in0.0 mm 0.00 in0.0 mm
01:45 PM 38.8°F3.8°C 35.6°F2.0°C 85% 1.8 mph SSW2.9 kmh SSW 3.8 mph6.1 kmh 29.80 in1009.1 mb 0.00 in0.0 mm 0.00 in0.0 mm 0.00 in0.0 mm
01:40 PM 38.8°F3.8°C 35.6°F2.0°C 85% 1.4 mph SSW2.3 kmh SSW 2.9 mph4.7 kmh 29.83 in1010.2 mb 0.00 in0.0 mm 0.00 in0.0 mm 0.00 in0.0 mm
01:35 PM 38.7°F3.7°C 35.6°F2.0°C 85% 1.2 mph S1.9 kmh S 2.9 mph4.7 kmh 29.83 in1010.2 mb 0.00 in0.0 mm 0.00 in0.0 mm 0.00 in0.0 mm
01:30 PM 38.7°F3.7°C 35.6°F2.0°C 85% 1.3 mph S2.1 kmh S 2.7 mph4.3 kmh 29.83 in1010.2 mb 0.00 in0.0 mm 0.00 in0.0 mm 0.00 in0.0 mm
01:25 PM 38.3°F3.5°C 35.6°F2.0°C 85% 1.8 mph S2.9 kmh S 3.8 mph6.1 kmh 29.83 in1010.2 mb 0.00 in0.0 mm 0.00 in0.0 mm 0.00 in0.0 mm
01:20 PM 38.1°F3.4°C 33.8°F1.0°C 85% 1.7 mph SSW2.7 kmh SSW 3.8 mph6.1 kmh 29.83 in1010.2 mb 0.00 in0.0 mm 0.00 in0.0 mm 0.00 in0.0 mm
01:15 PM 37.9°F3.3°C 33.8°F1.0°C 85% 2.0 mph SSW3.2 kmh SSW 4.9 mph7.9 kmh 29.83 in1010.2 mb 0.00 in0.0 mm 0.00 in0.0 mm 0.00 in0.0 mm
01:10 PM 37.8°F3.2°C 33.8°F1.0°C 85% 2.3 mph SSW3.7 kmh SSW 4.9 mph7.9 kmh 29.83 in1010.2 mb 0.00 in0.0 mm 0.00 in0.0 mm 0.00 in0.0 mm
01:05 PM 37.8°F3.2°C 33.8°F1.0°C 85% 2.0 mph SSW3.2 kmh SSW 3.6 mph5.8 kmh 29.83 in1010.2 mb 0.00 in0.0 mm 0.00 in0.0 mm 0.00 in0.0 mm
01:00 PM 37.6°F3.1°C 33.8°F1.0°C 84% 1.8 mph S2.9 kmh S 3.6 mph5.8 kmh 29.83 in1010.2 mb 0.00 in0.0 mm 0.00 in0.0 mm 0.00 in0.0 mm
12:55 PM 37.4°F3.0°C 33.8°F1.0°C 84% 1.7 mph SSW2.7 kmh SSW 3.1 mph5.0 kmh 29.86 in1011.2 mb 0.00 in0.0 mm 0.00 in0.0 mm 0.00 in0.0 mm
12:50 PM 37.2°F2.9°C 33.8°F1.0°C 84% 1.1 mph SW1.8 kmh SW 3.1 mph5.0 kmh 29.86 in1011.2 mb 0.00 in0.0 mm 0.00 in0.0 mm 0.00 in0.0 mm
12:45 PM 37.4°F3.0°C 33.8°F1.0°C 84% 1.1 mph SSW1.8 kmh SSW 3.1 mph5.0 kmh 29.86 in1011.2 mb 0.00 in0.0 mm 0.00 in0.0 mm 0.00 in0.0 mm
12:40 PM 37.6°F3.1°C 33.8°F1.0°C 84% 2.0 mph SSW3.2 kmh SSW 3.8 mph6.1 kmh 29.86 in1011.2 mb 0.00 in0.0 mm 0.00 in0.0 mm 0.00 in0.0 mm
12:35 PM 37.8°F3.2°C 33.8°F1.0°C 84% 1.8 mph SSW2.9 kmh SSW 3.8 mph6.1 kmh 29.86 in1011.2 mb 0.00 in0.0 mm 0.00 in0.0 mm 0.00 in0.0 mm
12:30 PM 38.7°F3.7°C 35.6°F2.0°C 85% 0.6 mph S1.0 kmh S 2.9 mph4.7 kmh 29.86 in1011.2 mb 0.00 in0.0 mm 0.00 in0.0 mm 0.00 in0.0 mm
12:25 PM 38.5°F3.6°C 35.6°F2.0°C 85% 0.7 mph S1.1 kmh S 2.9 mph4.7 kmh 29.86 in1011.2 mb 0.00 in0.0 mm 0.00 in0.0 mm 0.00 in0.0 mm
12:20 PM 37.8°F3.2°C 33.8°F1.0°C 85% 1.0 mph S1.6 kmh S 2.9 mph4.7 kmh 29.86 in1011.2 mb 0.00 in0.0 mm 0.00 in0.0 mm 0.00 in0.0 mm
12:15 PM 37.4°F3.0°C 33.8°F1.0°C 86% 0.6 mph S1.0 kmh S 2.9 mph4.7 kmh 29.86 in1011.2 mb 0.00 in0.0 mm 0.00 in0.0 mm 0.00 in0.0 mm
12:10 PM 36.0°F2.2°C 32.0°F0.0°C 86% 0.4 mph S0.6 kmh S 0.9 mph1.4 kmh 29.89 in1012.2 mb 0.00 in0.0 mm 0.00 in0.0 mm 0.00 in0.0 mm
12:05 PM 35.1°F1.7°C 32.0°F0.0°C 86% 0.3 mph S0.5 kmh S 0.9 mph1.4 kmh 29.89 in1012.2 mb 0.00 in0.0 mm 0.00 in0.0 mm 0.00 in0.0 mm
12:00 PM 34.7°F1.5°C 32.0°F0.0°C 86% Calm Calm -- 29.89 in1012.2 mb 0.00 in0.0 mm 0.00 in0.0 mm 0.00 in0.0 mm
11:55 AM 34.5°F1.4°C 30.2°F-1.0°C 86% 0.2 mph S0.3 kmh S 1.3 mph2.1 kmh 29.89 in1012.2 mb 0.00 in0.0 mm 0.00 in0.0 mm 0.00 in0.0 mm
11:50 AM 34.5°F1.4°C 30.2°F-1.0°C 86% 0.2 mph S0.3 kmh S 1.3 mph2.1 kmh 29.89 in1012.2 mb 0.00 in0.0 mm 0.00 in0.0 mm 0.00 in0.0 mm
11:45 AM 34.2°F1.2°C 30.2°F-1.0°C 86% Calm Calm -- 29.89 in1012.2 mb 0.00 in0.0 mm 0.00 in0.0 mm 0.00 in0.0 mm
11:40 AM 34.0°F1.1°C 30.2°F-1.0°C 85% Calm Calm -- 29.89 in1012.2 mb 0.00 in0.0 mm 0.00 in0.0 mm 0.00 in0.0 mm
11:35 AM 33.8°F1.0°C 30.2°F-1.0°C 85% Calm Calm -- 29.89 in1012.2 mb 0.00 in0.0 mm 0.00 in0.0 mm 0.00 in0.0 mm
11:30 AM 33.6°F0.9°C 30.2°F-1.0°C 85% Calm Calm -- 29.89 in1012.2 mb 0.00 in0.0 mm 0.00 in0.0 mm 0.00 in0.0 mm
11:25 AM 33.6°F0.9°C 30.2°F-1.0°C 85% Calm Calm -- 29.92 in1013.2 mb 0.00 in0.0 mm 0.00 in0.0 mm 0.00 in0.0 mm
11:20 AM 33.4°F0.8°C 30.2°F-1.0°C 85% Calm Calm -- 29.92 in1013.2 mb 0.00 in0.0 mm 0.00 in0.0 mm 0.00 in0.0 mm
11:15 AM 32.9°F0.5°C 30.2°F-1.0°C 85% Calm Calm -- 29.92 in1013.2 mb 0.00 in0.0 mm 0.00 in0.0 mm 0.00 in0.0 mm
11:10 AM 32.9°F0.5°C 30.2°F-1.0°C 85% 0.1 mph ENE0.2 kmh ENE 0.9 mph1.4 kmh 29.92 in1013.2 mb 0.00 in0.0 mm 0.00 in0.0 mm 0.00 in0.0 mm
11:05 AM 32.7°F0.4°C 30.2°F-1.0°C 85% 0.2 mph ENE0.3 kmh ENE 1.3 mph2.1 kmh 29.92 in1013.2 mb 0.00 in0.0 mm 0.00 in0.0 mm 0.00 in0.0 mm
11:00 AM 32.5°F0.3°C 30.2°F-1.0°C 85% 0.1 mph ENE0.2 kmh ENE 1.3 mph2.1 kmh 29.92 in1013.2 mb 0.00 in0.0 mm 0.00 in0.0 mm 0.00 in0.0 mm
10:55 AM 32.4°F0.2°C 28.4°F-2.0°C 85% Calm Calm -- 29.92 in1013.2 mb 0.00 in0.0 mm 0.00 in0.0 mm 0.00 in0.0 mm
10:50 AM 32.2°F0.1°C 28.4°F-2.0°C 85% 0.2 mph ENE0.3 kmh ENE 1.3 mph2.1 kmh 29.92 in1013.2 mb 0.00 in0.0 mm 0.00 in0.0 mm 0.00 in0.0 mm
10:45 AM 32.0°F0.0°C 26.6°F-3.0°C 85% 0.5 mph E0.8 kmh E 1.3 mph2.1 kmh 29.92 in1013.2 mb 0.00 in0.0 mm 0.00 in0.0 mm 0.00 in0.0 mm
10:40 AM 32.0°F0.0°C 26.6°F-3.0°C 85% 0.4 mph E0.6 kmh E 1.3 mph2.1 kmh 29.92 in1013.2 mb 0.00 in0.0 mm 0.00 in0.0 mm 0.00 in0.0 mm
10:35 AM 31.5°F-0.3°C 26.6°F-3.0°C 85% Calm Calm -- 29.92 in1013.2 mb 0.00 in0.0 mm 0.00 in0.0 mm 0.00 in0.0 mm
10:30 AM 31.3°F-0.4°C 26.6°F-3.0°C 85% Calm Calm -- 29.92 in1013.2 mb 0.00 in0.0 mm 0.00 in0.0 mm 0.00 in0.0 mm
10:25 AM 30.9°F-0.6°C 26.6°F-3.0°C 85% Calm Calm -- 29.92 in1013.2 mb 0.00 in0.0 mm 0.00 in0.0 mm 0.00 in0.0 mm
10:20 AM 30.6°F-0.8°C 24.8°F-4.0°C 85% 0.4 mph E0.6 kmh E 2.5 mph4.0 kmh 29.92 in1013.2 mb 0.00 in0.0 mm 0.00 in0.0 mm 0.00 in0.0 mm
10:15 AM 30.2°F-1.0°C 24.8°F-4.0°C 85% 0.4 mph E0.6 kmh E 2.5 mph4.0 kmh 29.92 in1013.2 mb 0.00 in0.0 mm 0.00 in0.0 mm 0.00 in0.0 mm
10:10 AM 30.2°F-1.0°C 24.8°F-4.0°C 85% Calm Calm -- 29.95 in1014.2 mb 0.00 in0.0 mm 0.00 in0.0 mm 0.00 in0.0 mm
10:05 AM 29.8°F-1.2°C 24.8°F-4.0°C 85% 0.1 mph SE0.2 kmh SE 0.9 mph1.4 kmh 29.95 in1014.2 mb 0.00 in0.0 mm 0.00 in0.0 mm 0.00 in0.0 mm
10:00 AM 29.7°F-1.3°C 24.8°F-4.0°C 85% 0.1 mph SE0.2 kmh SE 0.9 mph1.4 kmh 29.95 in1014.2 mb 0.00 in0.0 mm 0.00 in0.0 mm 0.00 in0.0 mm
09:55 AM 29.3°F-1.5°C 23.0°F-5.0°C 84% Calm Calm -- 29.95 in1014.2 mb 0.00 in0.0 mm 0.00 in0.0 mm 0.00 in0.0 mm
09:50 AM 28.8°F-1.8°C 23.0°F-5.0°C 84% 0.2 mph ESE0.3 kmh ESE 1.1 mph1.8 kmh 29.95 in1014.2 mb 0.00 in0.0 mm 0.00 in0.0 mm 0.00 in0.0 mm
09:45 AM 28.4°F-2.0°C 23.0°F-5.0°C 84% 0.2 mph ESE0.3 kmh ESE 1.1 mph1.8 kmh 29.95 in1014.2 mb 0.00 in0.0 mm 0.00 in0.0 mm 0.00 in0.0 mm
09:40 AM 28.4°F-2.0°C 23.0°F-5.0°C 84% 0.4 mph E0.6 kmh E 1.1 mph1.8 kmh 29.95 in1014.2 mb 0.00 in0.0 mm 0.00 in0.0 mm 0.00 in0.0 mm
09:35 AM 28.0°F-2.2°C 23.0°F-5.0°C 84% 0.6 mph E1.0 kmh E 1.3 mph2.1 kmh 29.95 in1014.2 mb 0.00 in0.0 mm 0.00 in0.0 mm 0.00 in0.0 mm
09:30 AM 27.7°F-2.4°C 23.0°F-5.0°C 84% 0.6 mph E1.0 kmh E 1.3 mph2.1 kmh 29.95 in1014.2 mb 0.00 in0.0 mm 0.00 in0.0 mm 0.00 in0.0 mm
09:25 AM 27.3°F-2.6°C 21.2°F-6.0°C 84% 0.4 mph E0.6 kmh E 1.1 mph1.8 kmh 29.95 in1014.2 mb 0.00 in0.0 mm 0.00 in0.0 mm 0.00 in0.0 mm
09:20 AM 27.0°F-2.8°C 21.2°F-6.0°C 84% 0.1 mph E0.2 kmh E 1.1 mph1.8 kmh 29.95 in1014.2 mb 0.00 in0.0 mm 0.00 in0.0 mm 0.00 in0.0 mm
09:15 AM 26.8°F-2.9°C 21.2°F-6.0°C 84% 0.4 mph E0.6 kmh E 1.1 mph1.8 kmh 29.95 in1014.2 mb 0.00 in0.0 mm 0.00 in0.0 mm 0.00 in0.0 mm
09:10 AM 26.8°F-2.9°C 21.2°F-6.0°C 84% 0.7 mph E1.1 kmh E 1.3 mph2.1 kmh 29.95 in1014.2 mb 0.00 in0.0 mm 0.00 in0.0 mm 0.00 in0.0 mm
09:05 AM 26.8°F-2.9°C 21.2°F-6.0°C 84% 0.4 mph ENE0.6 kmh ENE 1.3 mph2.1 kmh 29.95 in1014.2 mb 0.00 in0.0 mm 0.00 in0.0 mm 0.00 in0.0 mm
09:00 AM 26.4°F-3.1°C 21.2°F-6.0°C 84% 0.1 mph ENE0.2 kmh ENE 1.3 mph2.1 kmh 29.95 in1014.2 mb 0.00 in0.0 mm 0.00 in0.0 mm 0.00 in0.0 mm
08:55 AM 26.6°F-3.0°C 21.2°F-6.0°C 84% 0.5 mph ENE0.8 kmh ENE 1.3 mph2.1 kmh 29.98 in1015.2 mb 0.00 in0.0 mm 0.00 in0.0 mm 0.00 in0.0 mm
08:50 AM 26.6°F-3.0°C 21.2°F-6.0°C 84% 0.6 mph ENE1.0 kmh ENE 1.3 mph2.1 kmh 29.98 in1015.2 mb 0.00 in0.0 mm 0.00 in0.0 mm 0.00 in0.0 mm
08:45 AM 26.6°F-3.0°C 21.2°F-6.0°C 84% 0.3 mph ENE0.5 kmh ENE 1.1 mph1.8 kmh 29.98 in1015.2 mb 0.00 in0.0 mm 0.00 in0.0 mm 0.00 in0.0 mm
08:40 AM 26.6°F-3.0°C 21.2°F-6.0°C 84% 0.2 mph ENE0.3 kmh ENE 1.1 mph1.8 kmh 29.95 in1014.2 mb 0.00 in0.0 mm 0.00 in0.0 mm 0.00 in0.0 mm
08:35 AM 26.8°F-2.9°C 21.2°F-6.0°C 84% 0.3 mph ENE0.5 kmh ENE 0.9 mph1.4 kmh 29.95 in1014.2 mb 0.00 in0.0 mm 0.00 in0.0 mm 0.00 in0.0 mm
08:30 AM 26.8°F-2.9°C 21.2°F-6.0°C 84% 0.3 mph ENE0.5 kmh ENE 0.9 mph1.4 kmh 29.95 in1014.2 mb 0.00 in0.0 mm 0.00 in0.0 mm 0.00 in0.0 mm
08:25 AM 26.6°F-3.0°C 21.2°F-6.0°C 84% 0.1 mph NE0.2 kmh NE 0.9 mph1.4 kmh 29.95 in1014.2 mb 0.00 in0.0 mm 0.00 in0.0 mm 0.00 in0.0 mm
08:20 AM 26.2°F-3.2°C 21.2°F-6.0°C 84% Calm Calm -- 29.95 in1014.2 mb 0.00 in0.0 mm 0.00 in0.0 mm 0.00 in0.0 mm
08:15 AM 26.1°F-3.3°C 21.2°F-6.0°C 84% Calm Calm -- 29.95 in1014.2 mb 0.00 in0.0 mm 0.00 in0.0 mm 0.00 in0.0 mm
08:10 AM 26.1°F-3.3°C 21.2°F-6.0°C 84% Calm Calm -- 29.98 in1015.2 mb 0.00 in0.0 mm 0.00 in0.0 mm 0.00 in0.0 mm
08:05 AM 26.1°F-3.3°C 21.2°F-6.0°C 84% Calm Calm -- 29.98 in1015.2 mb 0.00 in0.0 mm 0.00 in0.0 mm 0.00 in0.0 mm
08:00 AM 25.9°F-3.4°C 21.2°F-6.0°C 84% Calm Calm -- 29.98 in1015.2 mb 0.00 in0.0 mm 0.00 in0.0 mm 0.00 in0.0 mm
07:55 AM 26.1°F-3.3°C 21.2°F-6.0°C 84% 0.2 mph NE0.3 kmh NE 0.9 mph1.4 kmh 29.98 in1015.2 mb 0.00 in0.0 mm 0.00 in0.0 mm 0.00 in0.0 mm
07:50 AM 26.2°F-3.2°C 21.2°F-6.0°C 84% 0.3 mph NE0.5 kmh NE 0.9 mph1.4 kmh 29.98 in1015.2 mb 0.00 in0.0 mm 0.00 in0.0 mm 0.00 in0.0 mm
07:45 AM 26.2°F-3.2°C 21.2°F-6.0°C 84% 0.1 mph NE0.2 kmh NE 0.9 mph1.4 kmh 29.98 in1015.2 mb 0.00 in0.0 mm 0.00 in0.0 mm 0.00 in0.0 mm
07:40 AM 26.2°F-3.2°C 21.2°F-6.0°C 84% Calm Calm -- 29.98 in1015.2 mb 0.00 in0.0 mm 0.00 in0.0 mm 0.00 in0.0 mm
07:35 AM 26.4°F-3.1°C 21.2°F-6.0°C 84% Calm Calm -- 29.98 in1015.2 mb 0.00 in0.0 mm 0.00 in0.0 mm 0.00 in0.0 mm
07:30 AM 26.4°F-3.1°C 21.2°F-6.0°C 84% 0.1 mph NE0.2 kmh NE 0.9 mph1.4 kmh 29.98 in1015.2 mb 0.00 in0.0 mm 0.00 in0.0 mm 0.00 in0.0 mm
07:25 AM 26.6°F-3.0°C 21.2°F-6.0°C 84% 0.2 mph NE0.3 kmh NE 0.9 mph1.4 kmh 29.95 in1014.2 mb 0.00 in0.0 mm 0.00 in0.0 mm 0.00 in0.0 mm
07:20 AM 26.6°F-3.0°C 21.2°F-6.0°C 84% 0.1 mph NE0.2 kmh NE 0.9 mph1.4 kmh 29.95 in1014.2 mb 0.00 in0.0 mm 0.00 in0.0 mm 0.00 in0.0 mm
07:15 AM 26.8°F-2.9°C 21.2°F-6.0°C 84% 0.1 mph NE0.2 kmh NE 0.9 mph1.4 kmh 29.95 in1014.2 mb 0.00 in0.0 mm 0.00 in0.0 mm 0.00 in0.0 mm
07:10 AM 27.0°F-2.8°C 21.2°F-6.0°C 84% 0.8 mph NE1.3 kmh NE 2.7 mph4.3 kmh 29.95 in1014.2 mb 0.00 in0.0 mm 0.00 in0.0 mm 0.00 in0.0 mm
07:05 AM 27.1°F-2.7°C 21.2°F-6.0°C 84% 1.1 mph NE1.8 kmh NE 2.9 mph4.7 kmh 29.95 in1014.2 mb 0.00 in0.0 mm 0.00 in0.0 mm 0.00 in0.0 mm
07:00 AM 27.1°F-2.7°C 21.2°F-6.0°C 84% 1.0 mph NE1.6 kmh NE 3.1 mph5.0 kmh 29.95 in1014.2 mb 0.00 in0.0 mm 0.00 in0.0 mm 0.00 in0.0 mm
06:55 AM 27.1°F-2.7°C 21.2°F-6.0°C 84% 1.0 mph NE1.6 kmh NE 3.1 mph5.0 kmh 29.95 in1014.2 mb 0.00 in0.0 mm 0.00 in0.0 mm 0.00 in0.0 mm
06:50 AM 27.1°F-2.7°C 21.2°F-6.0°C 84% 1.7 mph NE2.7 kmh NE 3.4 mph5.5 kmh 29.95 in1014.2 mb 0.00 in0.0 mm 0.00 in0.0 mm 0.00 in0.0 mm
06:45 AM 27.3°F-2.6°C 21.2°F-6.0°C 84% 2.2 mph NE3.5 kmh NE 3.4 mph5.5 kmh 29.95 in1014.2 mb 0.00 in0.0 mm 0.00 in0.0 mm 0.00 in0.0 mm
06:40 AM 27.1°F-2.7°C 21.2°F-6.0°C 84% 1.3 mph NE2.1 kmh NE 3.4 mph5.5 kmh 29.86 in1011.2 mb 0.00 in0.0 mm 0.00 in0.0 mm 0.00 in0.0 mm
06:35 AM 27.1°F-2.7°C 21.2°F-6.0°C 84% 0.6 mph NE1.0 kmh NE 1.3 mph2.1 kmh 29.86 in1011.2 mb 0.00 in0.0 mm 0.00 in0.0 mm 0.00 in0.0 mm
06:30 AM 27.3°F-2.6°C 21.2°F-6.0°C 84% 0.6 mph NE1.0 kmh NE 1.6 mph2.6 kmh 29.86 in1011.2 mb 0.00 in0.0 mm 0.00 in0.0 mm 0.00 in0.0 mm
06:25 AM 27.3°F-2.6°C 21.2°F-6.0°C 84% 0.7 mph NE1.1 kmh NE 1.6 mph2.6 kmh 29.98 in1015.2 mb 0.00 in0.0 mm 0.00 in0.0 mm 0.00 in0.0 mm
06:20 AM 27.3°F-2.6°C 21.2°F-6.0°C 84% 0.8 mph NE1.3 kmh NE 1.6 mph2.6 kmh 29.98 in1015.2 mb 0.00 in0.0 mm 0.00 in0.0 mm 0.00 in0.0 mm
06:15 AM 27.3°F-2.6°C 21.2°F-6.0°C 84% 0.8 mph NE1.3 kmh NE 2.0 mph3.2 kmh 29.98 in1015.2 mb 0.00 in0.0 mm 0.00 in0.0 mm 0.00 in0.0 mm
06:10 AM 27.3°F-2.6°C 21.2°F-6.0°C 84% 0.8 mph NE1.3 kmh NE 2.0 mph3.2 kmh 29.98 in1015.2 mb 0.00 in0.0 mm 0.00 in0.0 mm 0.00 in0.0 mm
06:05 AM 27.5°F-2.5°C 21.2°F-6.0°C 84% 0.2 mph NE0.3 kmh NE 1.6 mph2.6 kmh 29.98 in1015.2 mb 0.00 in0.0 mm 0.00 in0.0 mm 0.00 in0.0 mm
06:00 AM 27.7°F-2.4°C 23.0°F-5.0°C 84% 0.2 mph NE0.3 kmh NE 0.9 mph1.4 kmh 29.98 in1015.2 mb 0.00 in0.0 mm 0.00 in0.0 mm 0.00 in0.0 mm
05:55 AM 27.5°F-2.5°C 21.2°F-6.0°C 84% 0.2 mph NE0.3 kmh NE 0.9 mph1.4 kmh 29.98 in1015.2 mb 0.00 in0.0 mm 0.00 in0.0 mm 0.00 in0.0 mm
05:50 AM 27.7°F-2.4°C 23.0°F-5.0°C 84% 0.4 mph NE0.6 kmh NE 1.6 mph2.6 kmh 29.98 in1015.2 mb 0.00 in0.0 mm 0.00 in0.0 mm 0.00 in0.0 mm
05:45 AM 27.7°F-2.4°C 23.0°F-5.0°C 84% 0.9 mph ENE1.4 kmh ENE 2.0 mph3.2 kmh 29.98 in1015.2 mb 0.00 in0.0 mm 0.00 in0.0 mm 0.00 in0.0 mm
05:40 AM 27.7°F-2.4°C 23.0°F-5.0°C 84% 0.8 mph ENE1.3 kmh ENE 2.0 mph3.2 kmh 29.98 in1015.2 mb 0.00 in0.0 mm 0.00 in0.0 mm 0.00 in0.0 mm
05:35 AM 27.5°F-2.5°C 21.2°F-6.0°C 84% 0.6 mph NE1.0 kmh NE 2.2 mph3.5 kmh 29.98 in1015.2 mb 0.00 in0.0 mm 0.00 in0.0 mm 0.00 in0.0 mm
05:30 AM 27.9°F-2.3°C 23.0°F-5.0°C 84% 0.9 mph NE1.4 kmh NE 2.2 mph3.5 kmh 29.98 in1015.2 mb 0.00 in0.0 mm 0.00 in0.0 mm 0.00 in0.0 mm
05:25 AM 27.9°F-2.3°C 23.0°F-5.0°C 84% 0.7 mph NE1.1 kmh NE 2.2 mph3.5 kmh 29.98 in1015.2 mb 0.00 in0.0 mm 0.00 in0.0 mm 0.00 in0.0 mm
05:20 AM 28.0°F-2.2°C 23.0°F-5.0°C 84% 0.3 mph NNE0.5 kmh NNE 1.1 mph1.8 kmh 29.98 in1015.2 mb 0.00 in0.0 mm 0.00 in0.0 mm 0.00 in0.0 mm
05:15 AM 28.2°F-2.1°C 23.0°F-5.0°C 84% 0.4 mph NE0.6 kmh NE 1.3 mph2.1 kmh 29.98 in1015.2 mb 0.00 in0.0 mm 0.00 in0.0 mm 0.00 in0.0 mm
05:10 AM 28.0°F-2.2°C 23.0°F-5.0°C 84% 0.6 mph NE1.0 kmh NE 1.6 mph2.6 kmh 29.98 in1015.2 mb 0.00 in0.0 mm 0.00 in0.0 mm 0.00 in0.0 mm
05:05 AM 28.4°F-2.0°C 23.0°F-5.0°C 84% 0.6 mph NE1.0 kmh NE 1.6 mph2.6 kmh 29.98 in1015.2 mb 0.00 in0.0 mm 0.00 in0.0 mm 0.00 in0.0 mm
05:00 AM 28.4°F-2.0°C 23.0°F-5.0°C 84% 0.5 mph NE0.8 kmh NE 2.2 mph3.5 kmh 29.98 in1015.2 mb 0.00 in0.0 mm 0.00 in0.0 mm 0.00 in0.0 mm
04:55 AM 28.6°F-1.9°C 23.0°F-5.0°C 84% 0.4 mph NE0.6 kmh NE 2.2 mph3.5 kmh 29.98 in1015.2 mb 0.00 in0.0 mm 0.00 in0.0 mm 0.00 in0.0 mm
04:50 AM 28.4°F-2.0°C 23.0°F-5.0°C 84% 0.1 mph NE0.2 kmh NE 1.1 mph1.8 kmh 29.98 in1015.2 mb 0.00 in0.0 mm 0.00 in0.0 mm 0.00 in0.0 mm
04:45 AM 28.6°F-1.9°C 23.0°F-5.0°C 84% 1.0 mph NE1.6 kmh NE 2.7 mph4.3 kmh 29.98 in1015.2 mb 0.00 in0.0 mm 0.00 in0.0 mm 0.00 in0.0 mm
04:40 AM 28.9°F-1.7°C 24.8°F-4.0°C 85% 1.4 mph NE2.3 kmh NE 2.7 mph4.3 kmh 30.01 in1016.3 mb 0.00 in0.0 mm 0.00 in0.0 mm 0.00 in0.0 mm
04:35 AM 29.1°F-1.6°C 24.8°F-4.0°C 85% 1.1 mph NE1.8 kmh NE 2.5 mph4.0 kmh 30.01 in1016.3 mb 0.00 in0.0 mm 0.00 in0.0 mm 0.00 in0.0 mm
04:30 AM 29.1°F-1.6°C 23.0°F-5.0°C 84% 0.9 mph NE1.4 kmh NE 2.2 mph3.5 kmh 30.01 in1016.3 mb 0.00 in0.0 mm 0.00 in0.0 mm 0.00 in0.0 mm
04:25 AM 29.1°F-1.6°C 24.8°F-4.0°C 85% 0.9 mph NE1.4 kmh NE 2.0 mph3.2 kmh 30.01 in1016.3 mb 0.00 in0.0 mm 0.00 in0.0 mm 0.00 in0.0 mm
04:20 AM 29.5°F-1.4°C 24.8°F-4.0°C 85% 1.2 mph NE1.9 kmh NE 2.0 mph3.2 kmh 30.01 in1016.3 mb 0.00 in0.0 mm 0.00 in0.0 mm 0.00 in0.0 mm
04:15 AM 29.3°F-1.5°C 24.8°F-4.0°C 85% 0.7 mph NE1.1 kmh NE 1.6 mph2.6 kmh 30.01 in1016.3 mb 0.00 in0.0 mm 0.00 in0.0 mm 0.00 in0.0 mm
04:10 AM 29.3°F-1.5°C 23.0°F-5.0°C 84% 0.2 mph NE0.3 kmh NE 0.9 mph1.4 kmh 30.01 in1016.3 mb 0.00 in0.0 mm 0.00 in0.0 mm 0.00 in0.0 mm
04:05 AM 29.3°F-1.5°C 23.0°F-5.0°C 84% 0.1 mph NE0.2 kmh NE 0.9 mph1.4 kmh 30.01 in1016.3 mb 0.00 in0.0 mm 0.00 in0.0 mm 0.00 in0.0 mm
04:00 AM 29.5°F-1.4°C 24.8°F-4.0°C 84% 0.7 mph NE1.1 kmh NE 2.5 mph4.0 kmh 30.01 in1016.3 mb 0.00 in0.0 mm 0.00 in0.0 mm 0.00 in0.0 mm
03:55 AM 29.8°F-1.2°C 24.8°F-4.0°C 85% 1.0 mph NE1.6 kmh NE 2.5 mph4.0 kmh 30.01 in1016.3 mb 0.00 in0.0 mm 0.00 in0.0 mm 0.00 in0.0 mm
03:50 AM 29.7°F-1.3°C 24.8°F-4.0°C 84% 0.4 mph ENE0.6 kmh ENE 1.1 mph1.8 kmh 30.01 in1016.3 mb 0.00 in0.0 mm 0.00 in0.0 mm 0.00 in0.0 mm
03:45 AM 29.5°F-1.4°C 24.8°F-4.0°C 84% Calm Calm -- 30.01 in1016.3 mb 0.00 in0.0 mm 0.00 in0.0 mm 0.00 in0.0 mm
03:40 AM 29.7°F-1.3°C 24.8°F-4.0°C 84% Calm Calm -- 30.01 in1016.3 mb 0.00 in0.0 mm 0.00 in0.0 mm 0.00 in0.0 mm
03:35 AM 29.7°F-1.3°C 24.8°F-4.0°C 84% Calm Calm -- 30.01 in1016.3 mb 0.00 in0.0 mm 0.00 in0.0 mm 0.00 in0.0 mm
03:30 AM 29.7°F-1.3°C 24.8°F-4.0°C 84% Calm Calm -- 30.01 in1016.3 mb 0.00 in0.0 mm 0.00 in0.0 mm 0.00 in0.0 mm
03:25 AM 30.0°F-1.1°C 24.8°F-4.0°C 84% Calm Calm -- 30.01 in1016.3 mb 0.00 in0.0 mm 0.00 in0.0 mm 0.00 in0.0 mm
03:20 AM 30.2°F-1.0°C 24.8°F-4.0°C 85% Calm Calm -- 30.01 in1016.3 mb 0.00 in0.0 mm 0.00 in0.0 mm 0.00 in0.0 mm
03:15 AM 30.4°F-0.9°C 24.8°F-4.0°C 85% Calm Calm -- 30.01 in1016.3 mb 0.00 in0.0 mm 0.00 in0.0 mm 0.00 in0.0 mm
03:10 AM 30.4°F-0.9°C 24.8°F-4.0°C 85% 0.1 mph E0.2 kmh E 0.9 mph1.4 kmh 30.01 in1016.3 mb 0.00 in0.0 mm 0.00 in0.0 mm 0.00 in0.0 mm
03:05 AM 30.9°F-0.6°C 26.6°F-3.0°C 85% 0.4 mph E0.6 kmh E 1.3 mph2.1 kmh 30.01 in1016.3 mb 0.00 in0.0 mm 0.00 in0.0 mm 0.00 in0.0 mm
03:00 AM 31.3°F-0.4°C 26.6°F-3.0°C 85% 0.6 mph E1.0 kmh E 1.6 mph2.6 kmh 30.01 in1016.3 mb 0.00 in0.0 mm 0.00 in0.0 mm 0.00 in0.0 mm
02:55 AM 31.5°F-0.3°C 26.6°F-3.0°C 85% 0.7 mph E1.1 kmh E 1.6 mph2.6 kmh 30.04 in1017.3 mb 0.00 in0.0 mm 0.00 in0.0 mm 0.00 in0.0 mm
02:50 AM 31.6°F-0.2°C 26.6°F-3.0°C 85% 0.4 mph E0.6 kmh E 1.3 mph2.1 kmh 30.04 in1017.3 mb 0.00 in0.0 mm 0.00 in0.0 mm 0.00 in0.0 mm
02:45 AM 31.6°F-0.2°C 26.6°F-3.0°C 85% Calm Calm -- 30.04 in1017.3 mb 0.00 in0.0 mm 0.00 in0.0 mm 0.00 in0.0 mm
02:40 AM 31.8°F-0.1°C 26.6°F-3.0°C 85% Calm Calm -- 30.04 in1017.3 mb 0.00 in0.0 mm 0.00 in0.0 mm 0.00 in0.0 mm
02:35 AM 32.0°F0.0°C 26.6°F-3.0°C 85% Calm Calm -- 30.04 in1017.3 mb 0.00 in0.0 mm 0.00 in0.0 mm 0.00 in0.0 mm
02:30 AM 32.0°F0.0°C 26.6°F-3.0°C 85% Calm Calm -- 30.04 in1017.3 mb 0.00 in0.0 mm 0.00 in0.0 mm 0.00 in0.0 mm
02:25 AM 32.0°F0.0°C 26.6°F-3.0°C 85% 0.1 mph NE0.2 kmh NE 0.9 mph1.4 kmh 30.01 in1016.3 mb 0.00 in0.0 mm 0.00 in0.0 mm 0.00 in0.0 mm
02:20 AM 32.2°F0.1°C 28.4°F-2.0°C 85% 0.1 mph NE0.2 kmh NE 0.9 mph1.4 kmh 30.01 in1016.3 mb 0.00 in0.0 mm 0.00 in0.0 mm 0.00 in0.0 mm
02:15 AM 32.2°F0.1°C 28.4°F-2.0°C 85% 0.1 mph N0.2 kmh N 1.1 mph1.8 kmh 30.01 in1016.3 mb 0.00 in0.0 mm 0.00 in0.0 mm 0.00 in0.0 mm
02:10 AM 32.0°F0.0°C 26.6°F-3.0°C 85% 0.1 mph N0.2 kmh N 1.1 mph1.8 kmh 30.04 in1017.3 mb 0.00 in0.0 mm 0.00 in0.0 mm 0.00 in0.0 mm
02:05 AM 32.0°F0.0°C 26.6°F-3.0°C 85% 0.1 mph WSW0.2 kmh WSW 0.9 mph1.4 kmh 30.04 in1017.3 mb 0.00 in0.0 mm 0.00 in0.0 mm 0.00 in0.0 mm
02:00 AM 32.0°F0.0°C 26.6°F-3.0°C 85% 0.2 mph WSW0.3 kmh WSW 1.1 mph1.8 kmh 30.04 in1017.3 mb 0.00 in0.0 mm 0.00 in0.0 mm 0.00 in0.0 mm
01:55 AM 32.0°F0.0°C 26.6°F-3.0°C 85% 0.6 mph SW1.0 kmh SW 1.3 mph2.1 kmh 30.04 in1017.3 mb 0.00 in0.0 mm 0.00 in0.0 mm 0.00 in0.0 mm
01:50 AM 32.0°F0.0°C 26.6°F-3.0°C 85% 0.6 mph SW1.0 kmh SW 1.3 mph2.1 kmh 30.04 in1017.3 mb 0.00 in0.0 mm 0.00 in0.0 mm 0.00 in0.0 mm
01:45 AM 31.6°F-0.2°C 26.6°F-3.0°C 85% 0.3 mph SSW0.5 kmh SSW 1.3 mph2.1 kmh 30.04 in1017.3 mb 0.00 in0.0 mm 0.00 in0.0 mm 0.00 in0.0 mm
01:40 AM 32.0°F0.0°C 26.6°F-3.0°C 85% 0.3 mph SSW0.5 kmh SSW 1.3 mph2.1 kmh 30.01 in1016.3 mb 0.00 in0.0 mm 0.00 in0.0 mm 0.00 in0.0 mm
01:35 AM 32.0°F0.0°C 26.6°F-3.0°C 85% 0.2 mph SSW0.3 kmh SSW 1.3 mph2.1 kmh 30.01 in1016.3 mb 0.00 in0.0 mm 0.00 in0.0 mm 0.00 in0.0 mm
01:30 AM 32.4°F0.2°C 28.4°F-2.0°C 85% 0.1 mph NNW0.2 kmh NNW 0.9 mph1.4 kmh 30.01 in1016.3 mb 0.00 in0.0 mm 0.00 in0.0 mm 0.00 in0.0 mm
01:25 AM 32.2°F0.1°C 28.4°F-2.0°C 85% 0.2 mph NNW0.3 kmh NNW 0.9 mph1.4 kmh 30.01 in1016.3 mb 0.00 in0.0 mm 0.00 in0.0 mm 0.00 in0.0 mm
01:20 AM 32.5°F0.3°C 30.2°F-1.0°C 85% 0.1 mph NNW0.2 kmh NNW 0.9 mph1.4 kmh 30.01 in1016.3 mb 0.00 in0.0 mm 0.00 in0.0 mm 0.00 in0.0 mm
01:15 AM 33.1°F0.6°C 30.2°F-1.0°C 85% Calm Calm -- 30.01 in1016.3 mb 0.00 in0.0 mm 0.00 in0.0 mm 0.00 in0.0 mm
01:10 AM 33.4°F0.8°C 30.2°F-1.0°C 85% 0.1 mph NNW0.2 kmh NNW 0.9 mph1.4 kmh 30.04 in1017.3 mb 0.00 in0.0 mm 0.00 in0.0 mm 0.00 in0.0 mm
01:05 AM 33.6°F0.9°C 30.2°F-1.0°C 85% 0.2 mph SW0.3 kmh SW 1.1 mph1.8 kmh 30.04 in1017.3 mb 0.00 in0.0 mm 0.00 in0.0 mm 0.00 in0.0 mm
01:00 AM 33.6°F0.9°C 30.2°F-1.0°C 85% 0.1 mph SSW0.2 kmh SSW 1.1 mph1.8 kmh 30.04 in1017.3 mb 0.00 in0.0 mm 0.00 in0.0 mm 0.00 in0.0 mm
12:55 AM 33.1°F0.6°C 30.2°F-1.0°C 85% 0.3 mph NW0.5 kmh NW 1.6 mph2.6 kmh 30.04 in1017.3 mb 0.00 in0.0 mm 0.00 in0.0 mm 0.00 in0.0 mm
12:50 AM 33.3°F0.7°C 30.2°F-1.0°C 84% 0.7 mph NW1.1 kmh NW 2.0 mph3.2 kmh 30.04 in1017.3 mb 0.00 in0.0 mm 0.00 in0.0 mm 0.00 in0.0 mm
12:45 AM 33.3°F0.7°C 30.2°F-1.0°C 84% 1.0 mph NW1.6 kmh NW 3.4 mph5.5 kmh 30.04 in1017.3 mb 0.00 in0.0 mm 0.00 in0.0 mm 0.00 in0.0 mm
12:40 AM 33.1°F0.6°C 30.2°F-1.0°C 84% 1.6 mph NW2.6 kmh NW 3.4 mph5.5 kmh 30.04 in1017.3 mb 0.00 in0.0 mm 0.00 in0.0 mm 0.00 in0.0 mm
12:35 AM 32.5°F0.3°C 28.4°F-2.0°C 84% 1.7 mph NW2.7 kmh NW 3.1 mph5.0 kmh 30.04 in1017.3 mb 0.00 in0.0 mm 0.00 in0.0 mm 0.00 in0.0 mm
12:30 AM 32.7°F0.4°C 28.4°F-2.0°C 84% 0.7 mph NW1.1 kmh NW 3.1 mph5.0 kmh 30.04 in1017.3 mb 0.00 in0.0 mm 0.00 in0.0 mm 0.00 in0.0 mm
12:25 AM 32.5°F0.3°C 28.4°F-2.0°C 84% 0.2 mph W0.3 kmh W 1.6 mph2.6 kmh 30.04 in1017.3 mb 0.00 in0.0 mm 0.00 in0.0 mm 0.00 in0.0 mm
12:20 AM 32.9°F0.5°C 30.2°F-1.0°C 84% 0.2 mph SW0.3 kmh SW 1.6 mph2.6 kmh 30.04 in1017.3 mb 0.00 in0.0 mm 0.00 in0.0 mm 0.00 in0.0 mm
12:15 AM 32.5°F0.3°C 28.4°F-2.0°C 84% 0.2 mph SE0.3 kmh SE 0.9 mph1.4 kmh 30.04 in1017.3 mb 0.00 in0.0 mm 0.00 in0.0 mm 0.00 in0.0 mm
12:10 AM 32.7°F0.4°C 28.4°F-2.0°C 84% 0.3 mph ESE0.5 kmh ESE 1.1 mph1.8 kmh 30.01 in1016.3 mb 0.00 in0.0 mm 0.00 in0.0 mm 0.00 in0.0 mm
12:05 AM 32.5°F0.3°C 28.4°F-2.0°C 84% 0.2 mph ESE0.3 kmh ESE 1.1 mph1.8 kmh 30.01 in1016.3 mb 0.00 in0.0 mm 0.00 in0.0 mm 0.00 in0.0 mm
12:00 AM 32.4°F0.2°C 28.4°F-2.0°C 84% 0.1 mph ENE0.2 kmh ENE 0.9 mph1.4 kmh 30.01 in1016.3 mb 0.00 in0.0 mm 0.00 in0.0 mm 0.00 in0.0 mm